createdAt,value
2019-02-23T00:02:49.973Z,100985.13
2019-02-23T00:06:03.406Z,100987.71
2019-02-23T00:09:16.865Z,100990.97
2019-02-23T00:12:30.334Z,100986.61
2019-02-23T00:15:43.773Z,100986.45
2019-02-23T00:18:57.256Z,100989.89
2019-02-23T00:22:11.005Z,100988.03
2019-02-23T00:25:24.546Z,100980.59
2019-02-23T00:28:38.332Z,100982.35
2019-02-23T00:31:51.791Z,100991.73
2019-02-23T00:35:05.548Z,100986.36
2019-02-23T00:38:19.037Z,100983.83
2019-02-23T00:41:32.502Z,100987.47
2019-02-23T00:44:45.948Z,100986.85
2019-02-23T00:47:59.408Z,100992.94
2019-02-23T00:51:13.120Z,100986.23
2019-02-23T00:54:26.583Z,100994.01
2019-02-23T00:57:40.174Z,101002.67
2019-02-23T01:00:54.053Z,101009.17
2019-02-23T01:04:07.633Z,101006.01
2019-02-23T01:07:21.355Z,101006.11
2019-02-23T01:10:34.953Z,101002.44
2019-02-23T01:13:48.814Z,101002.50
2019-02-23T01:17:02.660Z,101006.44
2019-02-23T01:20:16.759Z,100996.78
2019-02-23T01:23:30.536Z,101010.06
2019-02-23T01:26:44.020Z,101005.34
2019-02-23T01:29:57.599Z,100998.89
2019-02-23T01:33:11.196Z,100998.55
2019-02-23T01:36:24.927Z,101002.83
2019-02-23T01:39:38.513Z,101001.08
2019-02-23T01:42:52.258Z,100993.91
2019-02-23T01:46:06.178Z,100997.69
2019-02-23T01:49:20.202Z,100999.98
2019-02-23T01:52:33.787Z,101008.92
2019-02-23T01:55:47.360Z,100994.86
2019-02-23T01:59:00.944Z,100993.23
2019-02-23T02:02:14.514Z,100995.34
2019-02-23T02:05:28.271Z,100995.77
2019-02-23T02:08:41.747Z,100995.09
2019-02-23T02:11:56.008Z,100995.09
2019-02-23T02:15:11.472Z,101005.47
2019-02-23T02:18:24.946Z,101008.69
2019-02-23T02:21:38.644Z,101012.71
2019-02-23T02:24:52.137Z,101009.71
2019-02-23T02:28:05.618Z,101011.39
2019-02-23T02:31:19.180Z,101009.92
2019-02-23T02:34:32.662Z,101003.80
2019-02-23T02:37:46.256Z,101002.05
2019-02-23T02:45:28.345Z,100985.64
2019-02-23T02:48:41.771Z,100991.12
2019-02-23T02:51:55.224Z,100991.96
2019-02-23T02:55:09.117Z,100991.00
2019-02-23T02:58:22.563Z,100995.95
2019-02-23T03:01:36.022Z,100988.56
2019-02-23T03:04:49.753Z,100987.30
2019-02-23T03:08:03.189Z,100979.47
2019-02-23T03:11:16.643Z,100972.65
2019-02-23T03:14:30.077Z,100986.44
2019-02-23T03:17:43.798Z,100978.56
2019-02-23T03:20:57.242Z,100979.80
2019-02-23T03:24:10.675Z,100981.25
2019-02-23T03:27:24.137Z,100968.44
2019-02-23T03:30:37.588Z,100978.25
2019-02-23T03:33:51.038Z,100974.09
2019-02-23T03:37:04.510Z,100980.06
2019-02-23T03:40:17.938Z,100973.73
2019-02-23T03:43:31.393Z,100969.74
2019-02-23T03:46:44.856Z,100965.13
2019-02-23T03:49:58.598Z,100960.19
2019-02-23T03:53:12.050Z,100959.50
2019-02-23T03:56:25.705Z,100955.69
2019-02-23T03:59:39.141Z,100954.69
2019-02-23T04:02:52.599Z,100963.16
2019-02-23T04:06:06.359Z,100963.30
2019-02-23T04:09:19.873Z,100964.92
2019-02-23T04:12:33.589Z,100961.62
2019-02-23T04:15:47.025Z,100953.64
2019-02-23T04:19:00.578Z,100942.84
2019-02-23T04:22:14.028Z,100952.37
2019-02-23T04:25:27.740Z,100943.98
2019-02-23T04:28:41.295Z,100945.25
2019-02-23T04:31:54.754Z,100945.66
2019-02-23T04:35:08.305Z,100953.28
2019-02-23T04:38:21.763Z,100951.94
2019-02-23T04:41:35.208Z,100959.77
2019-02-23T04:44:48.904Z,100963.86
2019-02-23T04:48:03.784Z,100960.69
2019-02-23T04:51:17.563Z,100958.14
2019-02-23T04:54:36.781Z,100952.14
2019-02-23T04:57:50.238Z,100948.55
2019-02-23T05:01:03.816Z,100946.20
2019-02-23T05:04:17.354Z,100946.06
2019-02-23T05:07:30.821Z,100948.05
2019-02-23T05:10:44.264Z,100954.28
2019-02-23T05:13:57.744Z,100952.88
2019-02-23T05:17:11.488Z,100961.90
2019-02-23T05:20:25.033Z,100951.02
2019-02-23T05:23:38.494Z,100955.69
2019-02-23T05:26:51.953Z,100952.30
2019-02-23T05:30:07.110Z,100950.74
2019-02-23T05:33:20.520Z,100954.82
2019-02-23T05:36:33.963Z,100948.47
2019-02-23T05:39:47.519Z,100955.23
2019-02-23T05:43:01.523Z,100957.03
2019-02-23T05:46:14.998Z,100952.36
2019-02-23T05:49:28.452Z,100955.65
2019-02-23T05:52:42.163Z,100954.78
2019-02-23T05:55:55.869Z,100961.86
2019-02-23T05:59:09.315Z,100966.88
2019-02-23T06:02:23.414Z,100967.00
2019-02-23T06:05:37.425Z,100971.22
2019-02-23T06:08:50.862Z,100980.33
2019-02-23T06:12:04.555Z,100982.98
2019-02-23T06:15:17.995Z,100980.38
2019-02-23T06:18:31.431Z,100975.96
2019-02-23T06:21:53.466Z,100979.33
2019-02-23T06:25:00.325Z,100971.85
2019-02-23T06:28:14.155Z,100980.59
2019-02-23T06:31:27.602Z,100974.31
2019-02-23T06:34:41.387Z,100981.58
2019-02-23T06:37:54.856Z,100984.94
2019-02-23T06:41:08.291Z,100994.06
2019-02-23T06:44:21.739Z,100993.50
2019-02-23T06:47:35.181Z,100999.71
2019-02-23T06:50:48.628Z,100994.53
2019-02-23T06:54:02.082Z,101005.70
2019-02-23T06:57:15.525Z,101000.64
2019-02-23T07:00:29.366Z,100999.23
2019-02-23T07:03:42.929Z,101009.03
2019-02-23T07:06:56.382Z,101018.22
2019-02-23T07:10:10.460Z,101016.37
2019-02-23T07:13:24.199Z,101016.72
2019-02-23T07:16:37.654Z,101030.73
2019-02-23T07:19:51.090Z,101033.47
2019-02-23T07:23:04.544Z,101029.87
2019-02-23T07:26:18.281Z,101041.05
2019-02-23T07:29:32.103Z,101032.96
2019-02-23T07:32:45.916Z,101038.81
2019-02-23T07:35:59.784Z,101048.91
2019-02-23T07:39:13.190Z,101051.88
2019-02-23T07:42:26.647Z,101053.81
2019-02-23T07:45:40.118Z,101055.67
2019-02-23T07:48:53.921Z,101059.67
2019-02-23T07:52:07.719Z,101054.91
2019-02-23T07:55:21.187Z,101052.53
2019-02-23T07:58:34.631Z,101049.75
2019-02-23T08:01:48.328Z,101045.30
2019-02-23T08:05:01.920Z,101054.70
2019-02-23T08:08:15.668Z,101054.22
2019-02-23T08:11:29.158Z,101060.48
2019-02-23T08:14:42.891Z,101063.36
2019-02-23T08:17:56.447Z,101069.07
2019-02-23T08:21:09.899Z,101061.08
2019-02-23T08:24:23.751Z,101062.22
2019-02-23T08:27:37.586Z,101058.89
2019-02-23T08:30:51.040Z,101051.81
2019-02-23T08:34:04.879Z,101051.78
2019-02-23T08:37:18.895Z,101041.27
2019-02-23T08:40:32.566Z,101049.07
2019-02-23T08:43:46.332Z,101037.09
2019-02-23T08:46:59.784Z,101040.05
2019-02-23T08:50:13.384Z,101033.43
2019-02-23T08:53:27.025Z,101033.30
2019-02-23T08:56:40.510Z,101036.95
2019-02-23T08:59:53.967Z,101036.94
2019-02-23T09:03:07.690Z,101018.49
2019-02-23T09:06:21.177Z,101007.70
2019-02-23T09:09:34.877Z,100999.92
2019-02-23T09:12:48.319Z,101007.05
2019-02-23T09:16:01.852Z,101003.23
2019-02-23T09:19:15.221Z,101003.37
2019-02-23T09:22:28.791Z,100999.47
2019-02-23T09:25:42.360Z,101010.58
2019-02-23T09:28:55.799Z,101013.94
2019-02-23T09:32:09.253Z,101018.64
2019-02-23T09:35:22.727Z,101027.56
2019-02-23T09:38:36.415Z,101029.02
2019-02-23T09:41:49.877Z,101026.56
2019-02-23T09:45:03.698Z,101027.13
2019-02-23T09:48:17.261Z,101023.71
2019-02-23T09:51:30.725Z,101022.28
2019-02-23T09:54:44.179Z,101038.18
2019-02-23T09:57:57.891Z,101025.79
2019-02-23T10:01:11.348Z,101025.21
2019-02-23T10:04:24.795Z,101030.00
2019-02-23T10:07:38.281Z,101020.42
2019-02-23T10:10:52.119Z,101009.84
2019-02-23T10:14:07.447Z,101002.30
2019-02-23T10:17:21.311Z,101003.15
2019-02-23T10:20:35.080Z,101004.38
2019-02-23T10:23:48.843Z,101004.52
2019-02-23T10:27:02.297Z,101006.91
2019-02-23T10:30:16.284Z,101001.96
2019-02-23T10:33:29.722Z,100987.36
2019-02-23T10:36:43.184Z,100989.82
2019-02-23T10:39:56.911Z,100994.07
2019-02-23T10:43:10.683Z,100995.73
2019-02-23T10:46:24.118Z,100984.05
2019-02-23T10:49:37.690Z,100974.77
2019-02-23T10:52:51.135Z,100963.27
2019-02-23T10:56:04.951Z,100968.17
2019-02-23T10:59:18.695Z,100955.58
2019-02-23T11:02:32.623Z,100956.70
2019-02-23T11:05:46.434Z,100952.27
2019-02-23T11:09:00.051Z,100952.27
2019-02-23T11:12:13.727Z,100949.51
2019-02-23T11:15:27.398Z,100954.51
2019-02-23T11:18:40.898Z,100964.54
2019-02-23T11:21:55.020Z,100969.54
2019-02-23T11:25:10.598Z,100979.02
2019-02-23T11:28:24.089Z,100982.30
2019-02-23T11:31:37.528Z,100971.57
2019-02-23T11:34:50.971Z,100986.75
2019-02-23T11:38:04.677Z,100982.68
2019-02-23T11:41:18.171Z,100982.28
2019-02-23T11:44:31.660Z,100984.44
2019-02-23T11:47:45.134Z,100975.84
2019-02-23T11:50:59.187Z,100978.81
2019-02-23T11:54:12.740Z,100979.06
2019-02-23T11:57:29.870Z,100982.59
2019-02-23T12:00:44.965Z,100977.73
2019-02-23T12:03:58.875Z,100975.05
2019-02-23T12:07:12.489Z,100966.50
2019-02-23T12:10:25.988Z,100963.89
2019-02-23T12:13:39.456Z,100963.30
2019-02-23T12:16:53.081Z,100953.67
2019-02-23T12:20:06.701Z,100946.20
2019-02-23T12:23:20.412Z,100940.60
2019-02-23T12:26:34.028Z,100951.05
2019-02-23T12:29:47.751Z,100951.82
2019-02-23T12:33:01.300Z,100943.16
2019-02-23T12:36:14.815Z,100940.27
2019-02-23T12:39:28.448Z,100928.56
2019-02-23T12:42:42.041Z,100915.66
2019-02-23T12:45:55.819Z,100902.78
2019-02-23T12:49:09.403Z,100895.17
2019-02-23T12:52:22.899Z,100900.98
2019-02-23T12:55:36.765Z,100904.02
2019-02-23T12:58:50.220Z,100898.25
2019-02-23T13:02:04.211Z,100897.85
2019-02-23T13:05:19.444Z,100892.36
2019-02-23T13:09:30.382Z,100893.06
2019-02-23T13:13:27.522Z,100892.70
2019-02-23T13:17:13.375Z,100883.95
2019-02-23T13:21:12.977Z,100884.92
2019-02-23T13:24:39.310Z,100881.23
2019-02-23T13:28:33.978Z,100877.91
2019-02-23T13:32:28.222Z,100864.53
2019-02-23T13:36:42.938Z,100861.84
2019-02-23T13:40:15.002Z,100856.31
2019-02-23T13:44:05.814Z,100852.98
2019-02-23T13:47:47.313Z,100852.57
2019-02-23T13:51:37.091Z,100855.36
2019-02-23T13:55:31.803Z,100841.08
2019-02-23T13:59:02.410Z,100834.05
2019-02-23T14:02:38.197Z,100836.20
2019-02-23T14:06:40.568Z,100834.81
2019-02-23T14:10:52.786Z,100830.33
2019-02-23T14:14:39.024Z,100823.80
2019-02-23T14:18:26.512Z,100816.59
2019-02-23T14:22:31.568Z,100820.41
2019-02-23T14:26:35.396Z,100829.08
2019-02-23T14:30:19.528Z,100821.97
2019-02-23T14:33:53.918Z,100821.95
2019-02-23T14:37:50.474Z,100815.32
2019-02-23T14:41:36.364Z,100819.48
2019-02-23T14:45:14.461Z,100822.14
2019-02-23T14:48:58.298Z,100817.70
2019-02-23T14:52:37.392Z,100817.62
2019-02-23T14:56:38.494Z,100816.02
2019-02-23T15:00:26.921Z,100816.77
2019-02-23T15:03:59.984Z,100814.38
2019-02-23T15:07:49.402Z,100815.38
2019-02-23T15:11:51.963Z,100831.62
2019-02-23T15:15:51.333Z,100826.81
2019-02-23T15:19:38.488Z,100823.95
2019-02-23T15:23:35.813Z,100824.14
2019-02-23T15:27:18.695Z,100822.22
2019-02-23T15:31:11.864Z,100816.65
2019-02-23T15:34:52.940Z,100809.73
2019-02-23T15:38:29.454Z,100814.28
2019-02-23T15:42:16.059Z,100807.69
2019-02-23T15:46:01.173Z,100813.27
2019-02-23T15:49:34.299Z,100812.16
2019-02-23T15:52:47.959Z,100816.44
2019-02-23T15:56:01.423Z,100818.47
2019-02-23T15:59:14.983Z,100818.09
2019-02-23T16:02:28.522Z,100820.80
2019-02-23T16:05:43.802Z,100816.77
2019-02-23T16:08:58.539Z,100829.87
2019-02-23T16:12:13.662Z,100826.94
2019-02-23T16:15:27.224Z,100823.28
2019-02-23T16:18:41.387Z,100822.56
2019-02-23T16:21:54.975Z,100829.71
2019-02-23T16:25:08.636Z,100832.48
2019-02-23T16:28:22.502Z,100824.66
2019-02-23T16:31:35.952Z,100816.81
2019-02-23T16:34:49.475Z,100823.44
2019-02-23T16:38:03.246Z,100814.69
2019-02-23T16:41:16.696Z,100811.95
2019-02-23T16:44:30.204Z,100825.12
2019-02-23T16:47:44.296Z,100824.73
2019-02-23T16:50:57.753Z,100824.73
2019-02-23T16:54:11.221Z,100826.00
2019-02-23T16:57:24.687Z,100825.61
2019-02-23T17:00:38.159Z,100834.17
2019-02-23T17:03:51.621Z,100830.48
2019-02-23T17:07:05.165Z,100842.32
2019-02-23T17:10:18.778Z,100845.91
2019-02-23T17:13:32.226Z,100850.58
2019-02-23T17:16:46.166Z,100852.86
2019-02-23T17:19:59.813Z,100855.54
2019-02-23T17:23:13.258Z,100857.27
2019-02-23T17:26:27.453Z,100863.87
2019-02-23T17:29:40.909Z,100877.92
2019-02-23T17:32:54.697Z,100876.75
2019-02-23T17:36:08.153Z,100877.36
2019-02-23T17:39:21.594Z,100880.49
2019-02-23T17:42:35.372Z,100885.09
2019-02-23T17:45:48.837Z,100876.67
2019-02-23T17:49:02.384Z,100891.92
2019-02-23T17:52:16.227Z,100888.84
2019-02-23T17:55:29.670Z,100891.75
2019-02-23T17:58:43.240Z,100889.80
2019-02-23T18:01:56.987Z,100891.22
2019-02-23T18:05:10.542Z,100893.48
2019-02-23T18:08:24.420Z,100896.89
2019-02-23T18:11:37.871Z,100890.70
2019-02-23T18:14:51.339Z,100897.89
2019-02-23T18:18:05.059Z,100898.50
2019-02-23T18:21:19.252Z,100899.30
2019-02-23T18:24:32.808Z,100902.77
2019-02-23T18:27:46.338Z,100909.39
2019-02-23T18:30:59.781Z,100907.58
2019-02-23T18:34:14.137Z,100911.98
2019-02-23T18:37:27.608Z,100923.73
2019-02-23T18:40:41.068Z,100920.78
2019-02-23T18:43:54.511Z,100910.71
2019-02-23T18:47:08.258Z,100913.38
2019-02-23T18:50:22.052Z,100920.62
2019-02-23T18:53:35.614Z,100913.92
2019-02-23T18:57:08.754Z,100917.34
2019-02-23T19:00:24.568Z,100920.88
2019-02-23T19:03:38.155Z,100919.31
2019-02-23T19:06:52.226Z,100921.34
2019-02-23T19:10:07.831Z,100915.63
2019-02-23T19:13:21.288Z,100921.05
2019-02-23T19:16:34.733Z,100911.76
2019-02-23T19:19:48.284Z,100905.27
2019-02-23T19:23:03.315Z,100907.96
2019-02-23T19:29:31.969Z,100910.70
2019-02-23T19:32:45.771Z,100908.00
2019-02-23T19:35:59.259Z,100918.19
2019-02-23T19:39:12.808Z,100909.70
2019-02-23T19:42:26.256Z,100914.47
2019-02-23T19:45:39.753Z,100915.86
2019-02-23T19:48:53.259Z,100917.84
2019-02-23T19:52:06.961Z,100921.00
2019-02-23T19:55:20.469Z,100925.52
2019-02-23T19:58:34.244Z,100924.25
2019-02-23T20:01:47.787Z,100928.30
2019-02-23T20:05:01.274Z,100933.05
2019-02-23T20:08:15.355Z,100927.02
2019-02-23T20:11:29.043Z,100925.20
2019-02-23T20:14:42.665Z,100933.65
2019-02-23T20:17:56.618Z,100934.41
2019-02-23T20:21:10.109Z,100927.41
2019-02-23T20:24:24.407Z,100922.03
2019-02-23T20:27:38.042Z,100917.22
2019-02-23T20:30:51.674Z,100921.13
2019-02-23T20:34:05.471Z,100919.75
2019-02-23T20:37:18.911Z,100912.44
2019-02-23T20:40:32.657Z,100907.97
2019-02-23T20:43:46.357Z,100914.64
2019-02-23T20:46:59.803Z,100905.55
2019-02-23T20:50:13.291Z,100911.44
2019-02-23T20:53:26.743Z,100910.53
2019-02-23T20:56:40.462Z,100913.30
2019-02-23T20:59:54.000Z,100909.30
2019-02-23T21:03:07.803Z,100919.55
2019-02-23T21:06:22.190Z,100929.34
2019-02-23T21:09:35.742Z,100923.23
2019-02-23T21:12:49.219Z,100927.96
2019-02-23T21:16:02.767Z,100929.45
2019-02-23T21:19:16.341Z,100924.30
2019-02-23T21:22:30.134Z,100934.66
2019-02-23T21:25:43.612Z,100929.36
2019-02-23T21:33:12.624Z,100927.88
2019-02-23T21:36:29.205Z,100924.42
2019-02-23T21:39:42.849Z,100923.52
2019-02-23T21:43:16.282Z,100926.62
2019-02-23T21:46:29.798Z,100931.22
2019-02-23T21:49:43.267Z,100920.56
2019-02-23T21:52:56.738Z,100929.87
2019-02-23T21:56:11.092Z,100932.02
2019-02-23T21:59:24.565Z,100925.39
2019-02-23T22:02:38.178Z,100927.22
2019-02-23T22:05:51.731Z,100927.65
2019-02-23T22:09:05.659Z,100929.51
2019-02-23T22:12:19.371Z,100938.81
2019-02-23T22:15:33.000Z,100940.53
2019-02-23T22:18:46.556Z,100937.28
2019-02-23T22:22:00.315Z,100935.57
2019-02-23T22:25:13.886Z,100938.20
2019-02-23T22:28:27.644Z,100938.20
2019-02-23T22:31:41.270Z,100935.12
2019-02-23T22:34:54.918Z,100932.70
2019-02-23T22:38:09.067Z,100930.84
2019-02-23T22:41:22.798Z,100928.11
2019-02-23T22:44:36.573Z,100935.12
2019-02-23T22:47:50.172Z,100932.70
2019-02-23T22:51:03.768Z,100935.34
2019-02-23T22:54:17.239Z,100935.44
2019-02-23T23:01:46.972Z,100947.55
2019-02-23T23:05:01.120Z,100942.77
2019-02-23T23:08:15.063Z,100950.34
2019-02-23T23:11:28.512Z,100945.34
2019-02-23T23:14:42.593Z,100947.86
2019-02-23T23:17:56.067Z,100952.70
2019-02-23T23:21:11.497Z,100952.34
2019-02-23T23:24:25.119Z,100952.91
2019-02-23T23:27:38.588Z,100948.56
2019-02-23T23:30:52.286Z,100951.60
2019-02-23T23:34:05.971Z,100953.52
2019-02-23T23:37:19.658Z,100943.87
2019-02-23T23:40:33.247Z,100945.28
2019-02-23T23:43:46.814Z,100943.87
2019-02-23T23:47:00.314Z,100944.02
2019-02-23T23:50:13.741Z,100951.94
2019-02-23T23:53:27.327Z,100940.39
2019-02-23T23:56:40.923Z,100935.48
2019-02-23T23:59:54.602Z,100934.47
